createdAt,value
2018-12-15T00:03:51.324Z,19.93
2018-12-15T00:08:59.809Z,17.87
2018-12-15T00:14:03.870Z,18.63
2018-12-15T00:19:07.943Z,19.77
2018-12-15T00:24:12.033Z,20.53
2018-12-15T00:29:16.128Z,19.23
2018-12-15T00:34:20.567Z,18.77
2018-12-15T00:39:24.638Z,21.03
2018-12-15T00:44:28.744Z,18.17
2018-12-15T00:49:32.823Z,18.83
2018-12-15T00:54:36.933Z,19.07
2018-12-15T00:59:41.736Z,21.23
2018-12-15T01:04:47.333Z,20.17
2018-12-15T01:09:51.394Z,20.43
2018-12-15T01:14:55.455Z,21.37
2018-12-15T01:19:59.625Z,20.57
2018-12-15T01:25:04.550Z,21.40
2018-12-15T01:30:09.105Z,21.20
2018-12-15T01:35:13.634Z,20.63
2018-12-15T01:40:17.691Z,20.53
2018-12-15T01:45:21.778Z,20.67
2018-12-15T01:50:25.834Z,22.70
2018-12-15T01:55:29.950Z,21.23
2018-12-15T02:00:34.046Z,22.47
2018-12-15T02:05:38.133Z,20.73
2018-12-15T02:10:42.217Z,23.17
2018-12-15T02:15:46.279Z,22.77
2018-12-15T02:20:50.365Z,22.80
2018-12-15T02:25:54.438Z,22.50
2018-12-15T02:30:58.528Z,22.20
2018-12-15T02:36:02.604Z,23.47
2018-12-15T02:41:06.704Z,23.90
2018-12-15T02:46:10.795Z,23.90
2018-12-15T02:51:14.907Z,24.53
2018-12-15T02:56:18.963Z,23.63
2018-12-15T03:01:23.054Z,25.30
2018-12-15T03:06:27.167Z,23.80
2018-12-15T03:11:31.423Z,24.43
2018-12-15T03:16:35.488Z,23.57
2018-12-15T03:21:39.546Z,23.77
2018-12-15T03:26:43.668Z,25.73
2018-12-15T03:31:47.719Z,25.73
2018-12-15T03:36:51.768Z,26.80
2018-12-15T03:41:55.816Z,27.50
2018-12-15T03:47:00.219Z,26.33
2018-12-15T03:52:04.300Z,27.43
2018-12-15T03:57:08.410Z,26.03
2018-12-15T04:02:12.926Z,26.53
2018-12-15T04:07:17.000Z,27.10
2018-12-15T04:12:21.065Z,27.23
2018-12-15T04:17:25.127Z,28.10
2018-12-15T04:22:29.227Z,26.60
2018-12-15T04:27:33.300Z,28.30
2018-12-15T04:32:37.350Z,25.97
2018-12-15T04:37:41.408Z,26.87
2018-12-15T04:42:45.471Z,27.83
2018-12-15T04:47:49.579Z,26.87
2018-12-15T04:52:53.651Z,29.07
2018-12-15T04:57:57.713Z,27.10
2018-12-15T05:03:01.760Z,27.63
2018-12-15T05:08:05.857Z,27.73
2018-12-15T05:13:09.895Z,27.73
2018-12-15T05:18:18.148Z,27.67
2018-12-15T05:23:20.133Z,28.43
2018-12-15T05:28:24.269Z,28.30
2018-12-15T05:33:28.338Z,27.47
2018-12-15T05:38:32.391Z,28.47
2018-12-15T05:43:36.475Z,26.40
2018-12-15T05:48:40.519Z,29.27
2018-12-15T05:53:44.572Z,28.40
2018-12-15T05:58:48.614Z,27.83
2018-12-15T06:03:52.831Z,27.93
2018-12-15T06:08:56.867Z,27.70
2018-12-15T06:14:00.923Z,27.67
2018-12-15T06:19:05.436Z,28.70
2018-12-15T06:24:09.798Z,27.00
2018-12-15T06:29:13.908Z,28.97
2018-12-15T06:34:18.456Z,28.27
2018-12-15T06:39:22.502Z,27.63
2018-12-15T06:44:26.610Z,26.77
2018-12-15T06:49:31.507Z,26.77
2018-12-15T06:54:35.562Z,28.13
2018-12-15T06:59:40.470Z,27.83
2018-12-15T07:04:44.552Z,27.47
2018-12-15T07:09:48.636Z,26.07
2018-12-15T07:14:52.695Z,25.73
2018-12-15T07:19:56.737Z,28.23
2018-12-15T07:25:00.855Z,28.27
2018-12-15T07:30:06.552Z,27.73
2018-12-15T07:35:10.626Z,28.43
2018-12-15T07:40:16.131Z,28.40
2018-12-15T07:45:20.189Z,26.77
2018-12-15T07:50:24.226Z,28.10
2018-12-15T07:55:28.274Z,25.00
2018-12-15T08:00:32.341Z,26.70
2018-12-15T08:05:36.395Z,27.30
2018-12-15T08:10:45.818Z,26.77
2018-12-15T08:15:49.891Z,26.70
2018-12-15T08:20:54.005Z,26.67
2018-12-15T08:25:58.085Z,25.53
2018-12-15T08:31:02.156Z,24.97
2018-12-15T08:36:06.238Z,25.67
2018-12-15T08:41:10.288Z,26.97
2018-12-15T08:46:17.544Z,25.63
2018-12-15T08:51:21.614Z,25.77
2018-12-15T08:56:25.660Z,24.73
2018-12-15T09:01:29.788Z,23.90
2018-12-15T09:06:34.290Z,26.30
2018-12-15T09:11:38.331Z,23.80
2018-12-15T09:16:42.407Z,24.87
2018-12-15T09:21:46.488Z,24.07
2018-12-15T09:26:50.539Z,25.07
2018-12-15T09:31:54.829Z,23.47
2018-12-15T09:36:58.879Z,25.13
2018-12-15T09:42:02.937Z,24.87
2018-12-15T09:47:06.981Z,25.33
2018-12-15T09:52:11.029Z,24.90
2018-12-15T09:57:15.120Z,23.00
2018-12-15T10:02:19.184Z,24.33
2018-12-15T10:07:23.233Z,25.20
2018-12-15T10:12:27.336Z,24.90
2018-12-15T10:17:31.427Z,24.87
2018-12-15T10:22:35.484Z,24.53
2018-12-15T10:27:39.539Z,25.77
2018-12-15T10:32:48.869Z,23.93
2018-12-15T10:37:52.971Z,25.33
2018-12-15T10:42:57.027Z,23.97
2018-12-15T10:48:01.154Z,24.43
2018-12-15T10:53:05.663Z,23.57
2018-12-15T10:58:09.712Z,23.80
2018-12-15T11:03:13.825Z,24.83
2018-12-15T11:08:17.935Z,24.53
2018-12-15T11:13:21.991Z,25.97
2018-12-15T11:18:26.060Z,25.37
2018-12-15T11:23:30.102Z,24.43
2018-12-15T11:28:34.205Z,24.77
2018-12-15T11:33:38.701Z,25.23
2018-12-15T11:38:42.756Z,23.57
2018-12-15T11:43:47.193Z,24.03
2018-12-15T11:48:51.240Z,25.17
2018-12-15T11:53:55.302Z,25.80
2018-12-15T11:58:59.662Z,25.03
2018-12-15T12:04:04.065Z,24.67
2018-12-15T12:09:08.141Z,26.30
2018-12-15T12:14:12.186Z,24.20
2018-12-15T12:19:16.255Z,24.37
2018-12-15T12:24:21.375Z,25.17
2018-12-15T12:29:27.409Z,25.30
2018-12-15T12:34:32.866Z,24.57
2018-12-15T12:39:36.934Z,25.97
2018-12-15T12:44:41.042Z,26.47
2018-12-15T12:49:45.249Z,25.33
2018-12-15T12:54:49.294Z,27.37
2018-12-15T12:59:53.336Z,25.40
2018-12-15T13:04:57.426Z,26.80
2018-12-15T13:10:01.477Z,28.13
2018-12-15T13:15:06.790Z,27.07
2018-12-15T13:20:10.856Z,27.67
2018-12-15T13:25:14.985Z,26.23
2018-12-15T13:30:19.046Z,27.43
2018-12-15T13:35:23.563Z,27.93
2018-12-15T13:40:28.159Z,25.93
2018-12-15T13:45:32.203Z,27.87
2018-12-15T13:50:36.274Z,26.77
2018-12-15T13:55:40.359Z,27.20
2018-12-15T14:00:44.419Z,28.00
2018-12-15T14:05:50.640Z,27.80
2018-12-15T14:10:54.714Z,26.40
2018-12-15T14:15:58.788Z,25.77
2018-12-15T14:21:02.949Z,24.77
2018-12-15T14:26:07.328Z,25.83
2018-12-15T14:31:11.397Z,26.60
2018-12-15T14:36:15.429Z,24.80
2018-12-15T14:41:19.601Z,24.20
2018-12-15T14:46:23.646Z,24.37
2018-12-15T14:51:27.699Z,25.67
2018-12-15T14:56:31.820Z,24.10
2018-12-15T15:01:35.863Z,25.27
2018-12-15T15:06:40.007Z,24.43
2018-12-15T15:11:44.030Z,23.67
2018-12-15T15:16:48.073Z,21.40
2018-12-15T15:21:52.131Z,21.73
2018-12-15T15:26:56.209Z,23.83
2018-12-15T15:32:00.799Z,22.33
2018-12-15T15:37:04.829Z,21.90
2018-12-15T15:42:09.443Z,22.17
2018-12-15T15:47:13.506Z,21.13
2018-12-15T15:52:17.632Z,21.70
2018-12-15T15:57:21.766Z,22.10
2018-12-15T16:02:25.902Z,21.80
2018-12-15T16:07:29.947Z,20.17
2018-12-15T16:12:33.975Z,21.93
2018-12-15T16:17:38.034Z,21.97
2018-12-15T16:22:42.208Z,21.63
2018-12-15T16:27:46.352Z,22.47
2018-12-15T16:32:50.409Z,23.97
2018-12-15T16:37:54.445Z,21.87
2018-12-15T16:42:58.512Z,22.00
2018-12-15T16:48:02.573Z,21.97
2018-12-15T16:53:06.962Z,20.17
2018-12-15T16:58:11.014Z,21.37
2018-12-15T17:03:15.083Z,19.80
2018-12-15T17:08:19.167Z,19.93
2018-12-15T17:13:23.249Z,19.40
2018-12-15T17:18:27.319Z,21.20
2018-12-15T17:23:31.393Z,21.50
2018-12-15T17:28:35.488Z,21.43
2018-12-15T17:33:39.555Z,21.53
2018-12-15T17:38:43.630Z,22.27
2018-12-15T17:43:47.923Z,26.53
2018-12-15T17:48:52.061Z,23.13
2018-12-15T17:53:56.159Z,22.70
2018-12-15T17:59:00.245Z,23.50
2018-12-15T18:04:04.666Z,23.87
2018-12-15T18:09:08.714Z,25.27
2018-12-15T18:14:12.790Z,24.80
2018-12-15T18:19:17.510Z,25.00
2018-12-15T18:24:27.143Z,23.20
2018-12-15T18:29:31.276Z,22.10
2018-12-15T18:34:35.418Z,22.47
2018-12-15T18:39:39.824Z,24.00
2018-12-15T18:44:43.907Z,23.33
2018-12-15T18:49:48.690Z,22.63
2018-12-15T18:54:52.958Z,22.27
2018-12-15T18:59:57.355Z,23.57
2018-12-15T19:05:02.573Z,22.30
2018-12-15T19:10:08.439Z,22.97
2018-12-15T19:15:19.737Z,22.77
2018-12-15T19:20:24.250Z,22.07
2018-12-15T19:25:28.392Z,22.67
2018-12-15T19:30:32.567Z,22.10
2018-12-15T19:35:36.620Z,22.63
2018-12-15T19:40:40.793Z,23.27
2018-12-15T19:45:44.835Z,22.00
2018-12-15T19:50:49.195Z,21.43
2018-12-15T19:55:53.297Z,23.00
2018-12-15T20:00:57.420Z,22.63
2018-12-15T20:06:01.535Z,22.47
2018-12-15T20:11:05.588Z,20.50
2018-12-15T20:16:09.635Z,21.77
2018-12-15T20:21:13.711Z,19.57
2018-12-15T20:26:17.797Z,22.63
2018-12-15T20:31:21.853Z,20.07
2018-12-15T20:36:27.622Z,19.27
2018-12-15T20:41:31.696Z,20.83
2018-12-15T20:46:35.754Z,19.93
2018-12-15T20:51:42.737Z,20.77
2018-12-15T20:56:45.925Z,21.07
2018-12-15T21:01:49.968Z,21.87
2018-12-15T21:06:54.033Z,22.60
2018-12-15T21:11:58.081Z,20.87
2018-12-15T21:17:02.626Z,21.43
2018-12-15T21:22:10.841Z,21.27
2018-12-15T21:27:14.932Z,21.77
2018-12-15T21:32:19.032Z,21.73
2018-12-15T21:37:23.184Z,23.20
2018-12-15T21:42:27.279Z,21.93
2018-12-15T21:47:31.349Z,22.17
2018-12-15T21:52:35.409Z,22.53
2018-12-15T21:57:39.466Z,20.60
2018-12-15T22:02:43.560Z,20.13
2018-12-15T22:07:47.719Z,21.47
2018-12-15T22:12:51.792Z,20.87
2018-12-15T22:17:55.879Z,19.77
2018-12-15T22:22:59.988Z,19.07
2018-12-15T22:28:04.561Z,19.83
2018-12-15T22:33:08.709Z,19.33
2018-12-15T22:38:12.824Z,19.90
2018-12-15T22:43:16.941Z,20.50
2018-12-15T22:48:21.067Z,20.30
2018-12-15T22:53:25.176Z,20.90
2018-12-15T22:58:29.294Z,20.43
2018-12-15T23:03:33.493Z,20.60
2018-12-15T23:08:38.172Z,20.63
2018-12-15T23:13:42.352Z,20.80
2018-12-15T23:18:46.436Z,22.50
2018-12-15T23:23:50.806Z,21.40
2018-12-15T23:28:54.907Z,20.87
2018-12-15T23:33:59.252Z,21.90
2018-12-15T23:39:04.826Z,20.20
2018-12-15T23:44:09.527Z,19.63
2018-12-15T23:49:13.650Z,20.00
2018-12-15T23:54:18.057Z,20.57
2018-12-15T23:59:22.141Z,20.37
